KSLK/SLK METAR and TAF weather

Enter ICAO airport designator
Station Type Date Time Source
KSLK METAR 2022/06/30 23:51 UTC NOAA

KSLK 302351Z AUTO 00000KT 10SM CLR 19/13 A3011 RMK AO2 SLP195 T01890128 10233 20189 56002


Station Type Date Time Source
KSLK Decoded METAR 2022/06/30 23:51 UTC NOAA

ADIRONDACK REGIONAL AIRPORT, NY, United States (KSLK) 44-24N 074-12W 498M
Jun 30, 2022 - 07:51 PM EDT / 2022.06.30 2351 UTC
Wind: Calm:0
Visibility: 10 mile(s):0
Sky conditions: clear
Temperature: 66.0 F (18.9 C)
Dew Point: 55.0 F (12.8 C)
Relative Humidity: 67%
Pressure (altimeter): 30.11 in. Hg (1019 hPa)
Pressure tendency: 0.01 inches (0.2 hPa) lower than three hours ago
ob: KSLK 302351Z AUTO 00000KT 10SM CLR 19/13 A3011 RMK AO2 SLP195 T01890128 10233 20189 56002
cycle: 0

Station Type Date Time Source
KSLK TAF 2022/06/30 18:27 UTC NOAA

TAF KSLK 301724Z 3018/0118 23005KT P6SM FEW040 SCT180
FM010300 20006KT P6SM SCT180 WS020/25035KT
FM011200 22006KT P6SM BKN180
FM011400 23010G16KT P6SM BKN180

Example: see airport list